createdAt,value
2022-09-12T04:00:19.553Z,16.85
2022-09-12T04:03:22.201Z,16.85
2022-09-12T04:06:24.221Z,16.25
2022-09-12T04:09:26.505Z,16.42
2022-09-12T04:12:29.625Z,16.42
2022-09-12T04:15:32.315Z,16.41
2022-09-12T04:18:35.514Z,16.52
2022-09-12T04:21:39.402Z,16.49
2022-09-12T04:24:41.422Z,16.45
2022-09-12T04:27:43.710Z,16.53
2022-09-12T04:30:45.764Z,16.58
2022-09-12T04:34:59.862Z,17.18
2022-09-12T04:38:02.275Z,17.18
2022-09-12T04:41:15.878Z,16.76
2022-09-12T04:44:18.542Z,16.76
2022-09-12T04:47:20.650Z,16.78
2022-09-12T04:50:22.937Z,16.73
2022-09-12T04:53:24.958Z,16.73
2022-09-12T04:56:28.762Z,16.79
2022-09-12T04:59:30.797Z,16.73
2022-09-12T05:02:34.863Z,16.84
2022-09-12T05:05:37.121Z,16.76
2022-09-12T05:08:39.421Z,16.74
2022-09-12T05:15:07.080Z,16.80
2022-09-12T05:18:09.149Z,16.93
2022-09-12T05:21:14.414Z,17.03
2022-09-12T05:24:16.570Z,17.08
2022-09-12T05:27:20.026Z,17.13
2022-09-12T05:30:22.203Z,17.14
2022-09-12T05:33:25.178Z,17.21
2022-09-12T05:36:29.371Z,17.27
2022-09-12T05:39:31.734Z,17.26
2022-09-12T05:42:33.853Z,17.35
2022-09-12T05:45:36.138Z,17.44
2022-09-12T05:48:40.327Z,17.50
2022-09-12T05:51:45.194Z,17.54
2022-09-12T05:54:48.513Z,17.54
2022-09-12T05:57:51.318Z,17.58
2022-09-12T06:00:53.343Z,17.68
2022-09-12T06:04:00.697Z,17.86
2022-09-12T06:07:02.779Z,17.90
2022-09-12T06:10:05.430Z,17.82
2022-09-12T06:13:08.622Z,17.77
2022-09-12T06:16:13.077Z,17.74
2022-09-12T06:19:18.152Z,17.87
2022-09-12T06:22:21.030Z,17.81
2022-09-12T06:25:23.121Z,17.76
2022-09-12T06:28:26.177Z,17.75
2022-09-12T06:31:31.170Z,17.67
2022-09-12T06:34:34.012Z,17.80
2022-09-12T06:37:36.121Z,17.94
2022-09-12T06:40:46.332Z,17.95
2022-09-12T06:43:48.595Z,18.03
2022-09-12T06:46:50.925Z,18.02
2022-09-12T06:49:52.940Z,18.13
2022-09-12T06:52:55.803Z,18.23
2022-09-12T06:56:03.020Z,18.32
2022-09-12T06:59:05.439Z,18.47
2022-09-12T07:02:09.082Z,18.50
2022-09-12T07:05:11.996Z,18.53
2022-09-12T07:08:15.529Z,18.59
2022-09-12T07:11:20.700Z,18.65
2022-09-12T07:14:24.130Z,18.68
2022-09-12T07:17:27.527Z,18.70
2022-09-12T07:20:33.140Z,18.76
2022-09-12T07:23:36.450Z,18.80
2022-09-12T07:26:40.566Z,18.88
2022-09-12T07:29:44.235Z,19.00
2022-09-12T07:32:46.266Z,18.97
2022-09-12T07:35:48.647Z,19.02
2022-09-12T07:38:57.606Z,19.01
2022-09-12T07:42:00.408Z,18.94
2022-09-12T07:45:02.862Z,18.71
2022-09-12T07:48:05.144Z,18.70
2022-09-12T07:51:10.774Z,18.71
2022-09-12T07:54:13.121Z,18.75
2022-09-12T07:57:15.695Z,18.68
2022-09-12T08:00:18.774Z,18.68
2022-09-12T08:03:21.076Z,18.71
2022-09-12T08:06:24.367Z,18.72
2022-09-12T08:09:26.682Z,18.82
2022-09-12T08:12:29.212Z,18.95
2022-09-12T08:15:31.571Z,19.17
2022-09-12T08:18:35.474Z,19.26
2022-09-12T08:21:37.782Z,19.28
2022-09-12T08:24:40.147Z,19.31
2022-09-12T08:27:43.037Z,19.39
2022-09-12T08:30:45.102Z,19.52
2022-09-12T08:33:47.596Z,19.53
2022-09-12T08:36:49.711Z,19.57
2022-09-12T08:39:52.944Z,19.60
2022-09-12T08:43:19.337Z,19.55
2022-09-12T08:47:26.732Z,19.57
2022-09-12T08:50:29.374Z,19.68
2022-09-12T08:53:35.965Z,19.74
2022-09-12T08:56:39.153Z,19.82
2022-09-12T08:59:44.772Z,19.84
2022-09-12T09:02:58.067Z,19.87
2022-09-12T09:06:14.090Z,19.97
2022-09-12T09:09:15.967Z,19.97
2022-09-12T09:13:00.765Z,20.07
2022-09-12T09:16:11.891Z,20.09
2022-09-12T09:19:26.910Z,20.21
2022-09-12T09:22:38.384Z,20.21
2022-09-12T09:25:58.754Z,20.24
2022-09-12T09:29:14.540Z,20.24
2022-09-12T09:32:26.818Z,20.25
2022-09-12T09:35:45.680Z,20.31
2022-09-12T09:38:55.602Z,20.23
2022-09-12T09:42:19.278Z,20.22
2022-09-12T09:45:24.359Z,20.27
2022-09-12T09:48:38.565Z,20.39
2022-09-12T09:51:42.586Z,20.44
2022-09-12T09:54:50.181Z,20.52
2022-09-12T09:57:53.256Z,20.57
2022-09-12T10:01:02.776Z,20.59
2022-09-12T10:04:05.369Z,20.68
2022-09-12T10:07:18.705Z,20.65
2022-09-12T10:10:25.528Z,20.70
2022-09-12T10:13:51.550Z,20.83
2022-09-12T10:16:53.899Z,20.79
2022-09-12T10:20:17.315Z,20.64
2022-09-12T10:23:19.232Z,20.40
2022-09-12T10:26:21.808Z,20.22
2022-09-12T10:29:32.084Z,20.15
2022-09-12T10:32:39.846Z,20.11
2022-09-12T10:35:46.002Z,20.07
2022-09-12T10:38:51.033Z,20.10
2022-09-12T10:41:53.517Z,20.25
2022-09-12T10:44:57.033Z,20.28
2022-09-12T10:48:05.522Z,20.36
2022-09-12T10:51:28.011Z,20.56
2022-09-12T10:54:30.751Z,20.72
2022-09-12T10:58:01.713Z,20.83
2022-09-12T11:01:13.450Z,20.92
2022-09-12T11:04:24.769Z,20.79
2022-09-12T11:07:46.074Z,20.74
2022-09-12T11:10:59.642Z,20.75
2022-09-12T11:14:46.408Z,20.62
2022-09-12T11:17:48.349Z,20.53
2022-09-12T11:21:10.558Z,20.45
2022-09-12T11:24:23.258Z,20.44
2022-09-12T11:27:31.672Z,20.35
2022-09-12T11:30:46.900Z,20.41
2022-09-12T11:33:54.949Z,20.33
2022-09-12T11:37:22.159Z,20.33
2022-09-12T11:40:55.950Z,20.28
2022-09-12T11:44:21.182Z,20.26
2022-09-12T11:47:24.253Z,20.23
2022-09-12T11:50:30.905Z,20.32
2022-09-12T11:53:38.853Z,20.52
2022-09-12T11:56:46.250Z,20.74
2022-09-12T11:59:58.125Z,20.92
2022-09-12T12:03:08.670Z,21.04
2022-09-12T12:06:19.381Z,20.81
2022-09-12T12:09:21.581Z,20.75
2022-09-12T12:12:27.568Z,20.72
2022-09-12T12:15:30.830Z,20.52
2022-09-12T12:18:36.563Z,20.44
2022-09-12T12:21:47.256Z,20.44
2022-09-12T12:25:28.883Z,20.60
2022-09-12T12:28:50.704Z,20.85
2022-09-12T12:32:02.051Z,20.84
2022-09-12T12:35:40.441Z,20.96
2022-09-12T12:38:42.982Z,21.03
2022-09-12T12:41:45.629Z,21.16
2022-09-12T12:44:51.381Z,21.15
2022-09-12T12:47:59.159Z,21.29
2022-09-12T12:51:29.452Z,21.43
2022-09-12T12:54:40.510Z,21.65
2022-09-12T12:57:51.001Z,21.57
2022-09-12T13:01:13.508Z,21.31
2022-09-12T13:04:19.671Z,21.22
2022-09-12T13:07:25.974Z,21.23
2022-09-12T13:10:30.575Z,21.18
2022-09-12T13:13:58.037Z,21.12
2022-09-12T13:17:04.614Z,21.09
2022-09-12T13:20:27.232Z,21.09
2022-09-12T13:23:32.636Z,21.02
2022-09-12T13:26:41.889Z,21.06
2022-09-12T13:29:44.209Z,21.15
2022-09-12T13:32:46.264Z,21.09
2022-09-12T13:36:13.668Z,21.07
2022-09-12T13:39:27.646Z,21.13
2022-09-12T13:42:39.505Z,21.25
2022-09-12T13:45:43.649Z,21.27
2022-09-12T13:48:46.686Z,21.25
2022-09-12T13:52:01.776Z,21.33
2022-09-12T13:55:22.841Z,21.28
2022-09-12T13:58:35.018Z,21.22
2022-09-12T14:01:40.463Z,21.15
2022-09-12T14:05:06.533Z,21.20
2022-09-12T14:08:11.238Z,20.99
2022-09-12T14:11:30.861Z,20.98
2022-09-12T14:14:36.510Z,20.97
2022-09-12T14:17:39.573Z,20.97
2022-09-12T14:20:42.695Z,20.95
2022-09-12T14:23:47.765Z,20.92
2022-09-12T14:26:54.367Z,20.87
2022-09-12T14:30:09.089Z,21.03
2022-09-12T14:33:11.027Z,21.07
2022-09-12T14:36:34.806Z,21.14
2022-09-12T14:39:42.849Z,21.20
2022-09-12T14:42:46.729Z,21.29
2022-09-12T14:45:59.430Z,21.26
2022-09-12T14:49:20.864Z,21.29
2022-09-12T14:52:33.113Z,21.28
2022-09-12T14:55:44.551Z,21.33
2022-09-12T14:58:46.778Z,21.42
2022-09-12T15:01:49.166Z,21.32
2022-09-12T15:05:16.187Z,21.26
2022-09-12T15:08:18.488Z,21.14
2022-09-12T15:11:23.260Z,21.09
2022-09-12T15:14:25.543Z,21.18
2022-09-12T15:17:27.561Z,21.17
2022-09-12T15:20:29.966Z,21.24
2022-09-12T15:23:42.770Z,21.31
2022-09-12T15:26:45.158Z,21.27
2022-09-12T15:29:47.184Z,21.31
2022-09-12T15:32:49.501Z,21.24
2022-09-12T15:35:52.542Z,21.23
2022-09-12T15:38:55.482Z,21.18
2022-09-12T15:41:57.516Z,21.22
2022-09-12T15:45:02.566Z,21.18
2022-09-12T15:48:04.893Z,21.10
2022-09-12T15:51:18.979Z,21.04
2022-09-12T15:54:21.412Z,21.08
2022-09-12T15:57:23.689Z,21.04
2022-09-12T16:00:26.011Z,20.97
2022-09-12T16:03:29.398Z,20.88
2022-09-12T16:06:37.201Z,20.90
